createdAt,value
2023-01-10T00:00:24.556Z,932.33
2023-01-10T00:01:25.459Z,932.33
2023-01-10T00:02:25.891Z,932.32
2023-01-10T00:03:26.702Z,932.3
2023-01-10T00:04:27.694Z,932.34
2023-01-10T00:05:28.216Z,932.35
2023-01-10T00:06:29.151Z,932.35
2023-01-10T00:07:29.634Z,932.29
2023-01-10T00:08:29.971Z,932.38
2023-01-10T00:09:30.180Z,932.29
2023-01-10T00:10:30.390Z,932.34
2023-01-10T00:11:30.614Z,932.38
2023-01-10T00:12:31.082Z,932.36
2023-01-10T00:13:32.001Z,932.35
2023-01-10T00:14:32.949Z,932.38
2023-01-10T00:15:33.343Z,932.44
2023-01-10T00:16:34.222Z,932.44
2023-01-10T00:17:34.420Z,932.43
2023-01-10T00:18:34.922Z,932.42
2023-01-10T00:19:35.624Z,932.48
2023-01-10T00:20:35.821Z,932.5
2023-01-10T00:21:36.762Z,932.45
2023-01-10T00:22:37.098Z,932.5
2023-01-10T00:23:38.029Z,932.46
2023-01-10T00:24:38.368Z,932.43
2023-01-10T00:25:38.583Z,932.38
2023-01-10T00:26:38.840Z,932.44
2023-01-10T00:27:39.340Z,932.42
2023-01-10T00:28:39.670Z,932.48
2023-01-10T00:29:40.375Z,932.47
2023-01-10T00:30:40.899Z,932.47
2023-01-10T00:31:41.216Z,932.55
2023-01-10T00:32:41.959Z,932.51
2023-01-10T00:33:42.436Z,932.5
2023-01-10T00:34:42.659Z,932.54
2023-01-10T00:35:43.613Z,932.57
2023-01-10T00:36:44.240Z,932.61
2023-01-10T00:37:45.195Z,932.56
2023-01-10T00:38:45.684Z,932.61
2023-01-10T00:39:45.898Z,932.64
2023-01-10T00:40:46.822Z,932.59
2023-01-10T00:41:47.045Z,932.63
2023-01-10T00:42:47.392Z,932.68
2023-01-10T00:43:48.018Z,932.7
2023-01-10T00:44:48.547Z,932.68
2023-01-10T00:45:48.840Z,932.67
2023-01-10T00:46:49.517Z,932.76
2023-01-10T00:47:49.727Z,932.74
2023-01-10T00:48:50.222Z,932.69
2023-01-10T00:49:50.873Z,932.78
2023-01-10T00:50:51.555Z,932.84
2023-01-10T00:51:52.483Z,932.86
2023-01-10T00:52:53.533Z,932.87
2023-01-10T00:53:53.743Z,932.86
2023-01-10T00:54:53.934Z,932.91
2023-01-10T00:55:54.146Z,932.94
2023-01-10T00:56:54.782Z,932.9
2023-01-10T00:57:55.047Z,932.91
2023-01-10T00:58:55.530Z,932.94
2023-01-10T00:59:56.490Z,932.92
2023-01-10T01:00:57.049Z,932.96
2023-01-10T01:01:57.127Z,932.97
2023-01-10T01:02:57.878Z,932.99
2023-01-10T01:03:58.354Z,932.99
2023-01-10T01:04:58.589Z,933.04
2023-01-10T01:05:59.240Z,933.03
2023-01-10T01:07:00.150Z,933.08
2023-01-10T01:08:00.396Z,933.09
2023-01-10T01:09:01.317Z,933.12
2023-01-10T01:10:01.968Z,933.13
2023-01-10T01:11:02.475Z,933.15
2023-01-10T01:12:02.682Z,933.17
2023-01-10T01:13:03.413Z,933.19
2023-01-10T01:14:04.346Z,933.17
2023-01-10T01:15:05.029Z,933.2
2023-01-10T01:16:05.394Z,933.21
2023-01-10T01:17:05.826Z,933.18
2023-01-10T01:18:06.766Z,933.21
2023-01-10T01:19:07.707Z,933.24
2023-01-10T01:20:08.659Z,933.22
2023-01-10T01:21:08.881Z,933.22
2023-01-10T01:22:09.823Z,933.23
2023-01-10T01:23:10.855Z,933.25
2023-01-10T01:24:11.797Z,933.35
2023-01-10T01:25:12.012Z,933.29
2023-01-10T01:26:12.491Z,933.35
2023-01-10T01:27:13.412Z,933.31
2023-01-10T01:28:13.670Z,933.34
2023-01-10T01:29:14.174Z,933.33
2023-01-10T01:30:15.275Z,933.36
2023-01-10T01:31:15.624Z,933.34
2023-01-10T01:32:15.985Z,933.38
2023-01-10T01:33:17.043Z,933.39
2023-01-10T01:34:17.242Z,933.36
2023-01-10T01:35:18.177Z,933.42
2023-01-10T01:36:18.829Z,933.4
2023-01-10T01:37:19.328Z,933.44
2023-01-10T01:38:19.971Z,933.51
2023-01-10T01:39:20.603Z,933.48
2023-01-10T01:40:21.518Z,933.51
2023-01-10T01:41:21.868Z,933.53
2023-01-10T01:42:22.506Z,933.55
2023-01-10T01:43:23.291Z,933.59
2023-01-10T01:44:23.497Z,933.58
2023-01-10T01:45:23.731Z,933.62
2023-01-10T01:46:24.009Z,933.62
2023-01-10T01:47:24.465Z,933.69
2023-01-10T01:48:24.971Z,933.67
2023-01-10T01:49:25.923Z,933.65
2023-01-10T01:50:26.142Z,933.69
2023-01-10T01:51:26.481Z,933.68
2023-01-10T01:52:27.103Z,933.74
2023-01-10T01:53:27.855Z,933.74
2023-01-10T01:54:28.802Z,933.79
2023-01-10T01:55:29.716Z,933.84
2023-01-10T01:56:30.663Z,933.87
2023-01-10T01:57:31.447Z,933.84
2023-01-10T01:58:31.660Z,933.86
2023-01-10T01:59:31.880Z,933.87
2023-01-10T02:00:32.396Z,933.96
2023-01-10T02:01:32.888Z,933.91
2023-01-10T02:02:33.149Z,933.96
2023-01-10T02:03:38.233Z,933.93
2023-01-10T02:04:38.396Z,933.87
2023-01-10T02:05:39.322Z,933.89
2023-01-10T02:06:40.258Z,933.88
2023-01-10T02:07:40.758Z,933.91
2023-01-10T02:08:40.987Z,933.89
2023-01-10T02:09:41.494Z,933.93
2023-01-10T02:10:42.152Z,933.96
2023-01-10T02:11:42.641Z,933.98
2023-01-10T02:12:43.001Z,934.01
2023-01-10T02:13:43.996Z,934.02
2023-01-10T02:14:44.491Z,933.99
2023-01-10T02:15:45.233Z,934.02
2023-01-10T02:16:46.130Z,934.1
2023-01-10T02:17:46.376Z,934.08
2023-01-10T02:18:47.029Z,934.07
2023-01-10T02:19:47.263Z,934.13
2023-01-10T02:20:47.497Z,934.2
2023-01-10T02:21:47.724Z,934.2
2023-01-10T02:22:47.918Z,934.23
2023-01-10T02:23:48.972Z,934.23
2023-01-10T02:24:49.880Z,934.27
2023-01-10T02:25:50.793Z,934.23
2023-01-10T02:26:51.712Z,934.27
2023-01-10T02:27:51.918Z,934.28
2023-01-10T02:28:52.179Z,934.29
2023-01-10T02:29:52.390Z,934.33
2023-01-10T02:30:52.687Z,934.31
2023-01-10T02:31:53.143Z,934.36
2023-01-10T02:33:04.169Z,934.34
2023-01-10T02:33:52.699Z,934.29
2023-01-10T02:34:53.323Z,934.27
2023-01-10T02:35:54.349Z,934.3
2023-01-10T02:36:54.549Z,934.31
2023-01-10T02:37:55.181Z,934.31
2023-01-10T02:38:56.121Z,934.39
2023-01-10T02:39:56.653Z,934.37
2023-01-10T02:40:57.601Z,934.38
2023-01-10T02:41:58.235Z,934.4
2023-01-10T02:42:58.439Z,934.39
2023-01-10T02:43:58.548Z,934.4
2023-01-10T02:44:58.710Z,934.43
2023-01-10T02:45:59.732Z,934.42
2023-01-10T02:46:59.938Z,934.5
2023-01-10T02:48:00.295Z,934.5
2023-01-10T02:49:01.228Z,934.52
2023-01-10T02:50:01.435Z,934.52
2023-01-10T02:51:02.362Z,934.52
2023-01-10T02:52:03.282Z,934.65
2023-01-10T02:53:03.917Z,934.57
2023-01-10T02:54:04.231Z,934.57
2023-01-10T02:55:04.449Z,934.64
2023-01-10T02:56:05.360Z,934.66
2023-01-10T02:57:05.553Z,934.72
2023-01-10T02:58:05.779Z,934.73
2023-01-10T02:59:06.278Z,934.77
2023-01-10T03:00:06.494Z,934.75
2023-01-10T03:01:07.452Z,934.74
2023-01-10T03:02:08.462Z,934.79
2023-01-10T03:03:08.805Z,934.82
2023-01-10T03:04:09.547Z,934.82
2023-01-10T03:05:10.649Z,934.82
2023-01-10T03:06:10.933Z,934.81
2023-01-10T03:07:11.853Z,934.83
2023-01-10T03:08:12.479Z,934.88
2023-01-10T03:09:12.858Z,934.89
2023-01-10T03:10:13.071Z,934.95
2023-01-10T03:11:13.266Z,934.96
2023-01-10T03:12:13.482Z,934.95
2023-01-10T03:13:14.413Z,934.94
2023-01-10T03:14:15.152Z,934.97
2023-01-10T03:15:15.366Z,934.96
2023-01-10T03:16:15.677Z,934.94
2023-01-10T03:17:16.042Z,935.01
2023-01-10T03:18:16.231Z,935.03
2023-01-10T03:19:16.421Z,935.09
2023-01-10T03:20:16.640Z,935.07
2023-01-10T03:21:16.895Z,935.08
2023-01-10T03:22:17.125Z,935.16
2023-01-10T03:23:17.456Z,935.1
2023-01-10T03:24:18.073Z,935.13
2023-01-10T03:25:18.256Z,935.15
2023-01-10T03:26:19.190Z,935.13
2023-01-10T03:27:20.119Z,935.19
2023-01-10T03:28:21.032Z,935.24
2023-01-10T03:29:21.529Z,935.29
2023-01-10T03:30:21.749Z,935.32
2023-01-10T03:31:22.800Z,935.33
2023-01-10T03:32:23.618Z,935.36
2023-01-10T03:33:24.531Z,935.34
2023-01-10T03:34:24.987Z,935.4
2023-01-10T03:35:25.206Z,935.43
2023-01-10T03:36:25.706Z,935.48
2023-01-10T03:37:26.230Z,935.46
2023-01-10T03:38:26.420Z,935.48
2023-01-10T03:39:26.667Z,935.49
2023-01-10T03:40:26.849Z,935.46
2023-01-10T03:41:27.104Z,935.46
2023-01-10T03:42:27.331Z,935.43
2023-01-10T03:43:27.550Z,935.46
2023-01-10T03:44:27.873Z,935.48
2023-01-10T03:45:28.100Z,935.51
2023-01-10T03:46:28.385Z,935.54
2023-01-10T03:47:28.807Z,935.55
2023-01-10T03:48:29.467Z,935.62
2023-01-10T03:49:30.374Z,935.6
2023-01-10T03:50:31.280Z,935.62
2023-01-10T03:51:32.220Z,935.58
2023-01-10T03:52:32.414Z,935.68
2023-01-10T03:53:33.313Z,935.66
2023-01-10T03:54:33.617Z,935.7
2023-01-10T03:55:33.830Z,935.67
2023-01-10T03:56:34.737Z,935.71
2023-01-10T03:57:35.080Z,935.71
2023-01-10T03:58:35.284Z,935.75
2023-01-10T03:59:35.519Z,935.75
2023-01-10T04:00:35.880Z,935.77
2023-01-10T04:01:36.464Z,935.88
2023-01-10T04:02:36.544Z,935.81
2023-01-10T04:03:36.744Z,935.82
2023-01-10T04:04:37.002Z,935.85
2023-01-10T04:05:37.280Z,935.81
2023-01-10T04:06:37.398Z,935.87
2023-01-10T04:07:37.633Z,935.83
2023-01-10T04:08:38.285Z,935.86
2023-01-10T04:09:38.519Z,935.85
2023-01-10T04:10:38.738Z,935.87
2023-01-10T04:11:38.927Z,935.8
2023-01-10T04:12:39.443Z,935.86
2023-01-10T04:13:40.375Z,935.82
2023-01-10T04:14:41.392Z,935.79
2023-01-10T04:15:41.636Z,935.84
2023-01-10T04:16:42.179Z,935.94
2023-01-10T04:17:43.120Z,935.88
2023-01-10T04:18:43.646Z,935.93
2023-01-10T04:19:44.585Z,936.01
2023-01-10T04:20:44.806Z,935.96
2023-01-10T04:21:45.021Z,936.07
2023-01-10T04:22:45.344Z,936.11
2023-01-10T04:23:45.914Z,936.04
2023-01-10T04:24:46.254Z,936.06
2023-01-10T04:25:46.618Z,936.09
2023-01-10T04:26:47.545Z,936.12
2023-01-10T04:27:47.757Z,936.13
2023-01-10T04:28:48.250Z,936.14
2023-01-10T04:29:49.199Z,936.13
2023-01-10T04:30:49.685Z,936.12
2023-01-10T04:31:50.662Z,936.11
2023-01-10T04:32:51.168Z,936.19
2023-01-10T04:33:52.124Z,936.21
2023-01-10T04:34:52.432Z,936.2
2023-01-10T04:35:53.360Z,936.21
2023-01-10T04:36:53.605Z,936.25
2023-01-10T04:37:54.520Z,936.23
2023-01-10T04:38:55.477Z,936.26
2023-01-10T04:39:55.998Z,936.29
2023-01-10T04:40:56.206Z,936.37
2023-01-10T04:41:57.137Z,936.4
2023-01-10T04:42:58.046Z,936.4
2023-01-10T04:43:59.011Z,936.41
2023-01-10T04:44:59.669Z,936.38
2023-01-10T04:45:59.929Z,936.38
2023-01-10T04:47:00.337Z,936.46
2023-01-10T04:48:00.856Z,936.51
2023-01-10T04:49:01.225Z,936.48
2023-01-10T04:50:02.148Z,936.49
2023-01-10T04:51:02.651Z,936.51
2023-01-10T04:52:03.626Z,936.55
2023-01-10T04:53:04.554Z,936.61
2023-01-10T04:54:04.758Z,936.59
2023-01-10T04:55:05.786Z,936.6
2023-01-10T04:56:06.298Z,936.62
2023-01-10T04:57:06.817Z,936.54
2023-01-10T04:58:07.739Z,936.64
2023-01-10T04:59:07.947Z,936.69
2023-01-10T05:00:08.460Z,936.76
2023-01-10T05:01:08.703Z,936.8
2023-01-10T05:02:09.309Z,936.82
2023-01-10T05:03:10.258Z,936.83
2023-01-10T05:04:10.407Z,936.86
2023-01-10T05:05:10.763Z,936.9
2023-01-10T05:06:10.966Z,936.97
2023-01-10T05:07:11.485Z,936.93
2023-01-10T05:08:12.426Z,936.95
2023-01-10T05:09:13.349Z,936.95
2023-01-10T05:10:13.584Z,936.93
2023-01-10T05:11:14.213Z,936.94
2023-01-10T05:12:15.126Z,936.85
2023-01-10T05:13:16.042Z,936.91
2023-01-10T05:14:16.400Z,937
2023-01-10T05:15:17.170Z,936.97
2023-01-10T05:16:17.725Z,936.97
2023-01-10T05:17:18.195Z,937.04
2023-01-10T05:18:19.133Z,937.03
2023-01-10T05:19:20.045Z,937.11
2023-01-10T05:20:21.000Z,937.06
2023-01-10T05:21:21.233Z,937.12
2023-01-10T05:22:21.473Z,937.14
2023-01-10T05:23:22.116Z,937.15
2023-01-10T05:24:23.069Z,937.23
2023-01-10T05:25:23.425Z,937.22
2023-01-10T05:26:24.438Z,937.25
2023-01-10T05:27:25.357Z,937.29
2023-01-10T05:28:25.596Z,937.31
2023-01-10T05:29:26.082Z,937.32
2023-01-10T05:30:27.021Z,937.37
2023-01-10T05:31:27.976Z,937.4
2023-01-10T05:32:29.003Z,937.41
2023-01-10T05:33:29.568Z,937.46
2023-01-10T05:34:30.474Z,937.45
2023-01-10T05:35:31.217Z,937.55
2023-01-10T05:36:31.448Z,937.54
2023-01-10T05:37:32.381Z,937.51
2023-01-10T05:38:32.989Z,937.57
2023-01-10T05:39:33.912Z,937.61
2023-01-10T05:40:34.134Z,937.66
2023-01-10T05:41:34.667Z,937.68
2023-01-10T05:42:35.602Z,937.68
2023-01-10T05:43:36.267Z,937.7
2023-01-10T05:44:37.224Z,937.75
2023-01-10T05:45:37.601Z,937.74
2023-01-10T05:46:37.835Z,937.78
2023-01-10T05:47:38.077Z,937.76
2023-01-10T05:48:38.297Z,937.81
2023-01-10T05:49:38.943Z,937.82
2023-01-10T05:50:39.442Z,937.83
2023-01-10T05:51:39.933Z,937.86
2023-01-10T05:52:40.448Z,937.88
2023-01-10T05:53:41.373Z,937.89
2023-01-10T05:54:41.504Z,937.9
2023-01-10T05:55:42.281Z,937.92
2023-01-10T05:56:43.186Z,937.95
2023-01-10T05:57:43.707Z,937.94
2023-01-10T05:58:47.227Z,937.98
2023-01-10T05:59:45.086Z,937.99
2023-01-10T06:00:45.723Z,938.04
2023-01-10T06:01:45.977Z,938.09
2023-01-10T06:02:46.207Z,938.1
2023-01-10T06:03:47.096Z,938.13
2023-01-10T06:04:48.017Z,938.13
2023-01-10T06:05:48.982Z,938.15
2023-01-10T06:06:49.415Z,938.18
2023-01-10T06:07:49.969Z,938.18
2023-01-10T06:08:50.465Z,938.31
2023-01-10T06:09:51.131Z,938.3
2023-01-10T06:10:51.639Z,938.39
2023-01-10T06:11:51.852Z,938.4
2023-01-10T06:12:52.797Z,938.44
2023-01-10T06:13:53.453Z,938.37
2023-01-10T06:14:54.120Z,938.4
2023-01-10T06:15:54.713Z,938.39
2023-01-10T06:16:55.444Z,938.4
2023-01-10T06:17:56.092Z,938.49
2023-01-10T06:18:56.425Z,938.48
2023-01-10T06:19:56.643Z,938.47
2023-01-10T06:20:57.274Z,938.47
2023-01-10T06:21:57.769Z,938.5
2023-01-10T06:22:58.006Z,938.51
2023-01-10T06:23:58.496Z,938.58
2023-01-10T06:25:00.997Z,938.54
2023-01-10T06:25:59.656Z,938.57
2023-01-10T06:26:59.845Z,938.59
2023-01-10T06:28:00.496Z,938.65
2023-01-10T06:29:00.689Z,938.7
2023-01-10T06:30:00.898Z,938.74
2023-01-10T06:31:01.620Z,938.73
2023-01-10T06:32:02.601Z,938.79
2023-01-10T06:33:02.842Z,938.79
2023-01-10T06:34:03.772Z,938.86
2023-01-10T06:35:04.394Z,938.96
2023-01-10T06:36:05.109Z,938.96
2023-01-10T06:37:06.024Z,939.04
2023-01-10T06:38:06.160Z,939.05
2023-01-10T06:39:06.639Z,939.04
2023-01-10T06:40:06.832Z,939.08
2023-01-10T06:41:07.756Z,939.08
2023-01-10T06:42:08.481Z,939.11
2023-01-10T06:43:09.408Z,939.14
2023-01-10T06:44:10.407Z,939.17
2023-01-10T06:45:11.341Z,939.17
2023-01-10T06:46:12.216Z,939.18
2023-01-10T06:47:12.964Z,939.23
2023-01-10T06:48:13.900Z,939.23
2023-01-10T06:49:14.148Z,939.24
2023-01-10T06:50:15.065Z,939.26
2023-01-10T06:51:15.451Z,939.3
2023-01-10T06:52:15.935Z,939.31
2023-01-10T06:53:16.906Z,939.36
2023-01-10T06:54:17.122Z,939.4
2023-01-10T06:55:17.445Z,939.4
2023-01-10T06:56:17.735Z,939.45
2023-01-10T06:57:18.215Z,939.47
2023-01-10T06:58:18.739Z,939.48
2023-01-10T06:59:18.958Z,939.5
2023-01-10T07:00:19.558Z,939.55
2023-01-10T07:01:20.236Z,939.62
2023-01-10T07:02:20.339Z,939.59
2023-01-10T07:03:20.606Z,939.63
2023-01-10T07:04:21.364Z,939.62
2023-01-10T07:05:22.305Z,939.71
2023-01-10T07:06:22.638Z,939.7
2023-01-10T07:07:23.034Z,939.71
2023-01-10T07:08:23.597Z,939.72
2023-01-10T07:09:24.593Z,939.79
2023-01-10T07:10:25.251Z,939.8
2023-01-10T07:11:25.907Z,939.87
2023-01-10T07:12:26.846Z,939.83
2023-01-10T07:13:27.051Z,939.87
2023-01-10T07:14:27.449Z,939.89
2023-01-10T07:15:28.027Z,939.87
2023-01-10T07:16:28.341Z,939.92
2023-01-10T07:17:29.266Z,939.92
2023-01-10T07:18:29.497Z,939.94
2023-01-10T07:19:29.744Z,939.97
2023-01-10T07:20:30.269Z,939.94
2023-01-10T07:21:31.206Z,940.01
2023-01-10T07:22:31.425Z,940.03
2023-01-10T07:23:31.643Z,940.04
2023-01-10T07:24:31.894Z,940.01
2023-01-10T07:25:32.529Z,940.04
2023-01-10T07:26:32.881Z,940.12
2023-01-10T07:27:33.796Z,940.12
2023-01-10T07:28:34.456Z,940.1
2023-01-10T07:29:35.378Z,940.11
2023-01-10T07:30:35.603Z,940.1
2023-01-10T07:31:36.157Z,940.15
2023-01-10T07:32:36.506Z,940.2
2023-01-10T07:33:37.019Z,940.18
2023-01-10T07:34:37.550Z,940.18
2023-01-10T07:35:38.040Z,940.23
2023-01-10T07:36:39.498Z,940.19
2023-01-10T07:37:39.505Z,940.24
2023-01-10T07:38:40.042Z,940.29
2023-01-10T07:39:40.987Z,940.33
2023-01-10T07:40:41.628Z,940.31
2023-01-10T07:41:42.571Z,940.29
2023-01-10T07:42:43.532Z,940.31
2023-01-10T07:43:43.726Z,940.37
2023-01-10T07:44:43.973Z,940.36
2023-01-10T07:45:44.447Z,940.39
2023-01-10T07:46:44.704Z,940.39
2023-01-10T07:47:45.649Z,940.4
2023-01-10T07:48:45.911Z,940.48
2023-01-10T07:49:46.426Z,940.51
2023-01-10T07:50:47.378Z,940.55
2023-01-10T07:51:47.592Z,940.54
2023-01-10T07:52:47.794Z,940.62
2023-01-10T07:53:48.329Z,940.66
2023-01-10T07:54:48.569Z,940.65
2023-01-10T07:55:49.086Z,940.65
2023-01-10T07:56:49.400Z,940.71
2023-01-10T07:57:50.301Z,940.76
2023-01-10T07:58:50.541Z,940.8
2023-01-10T07:59:51.489Z,940.79
2023-01-10T08:00:52.133Z,940.83
2023-01-10T08:01:52.924Z,940.79
2023-01-10T08:02:53.637Z,940.76
2023-01-10T08:03:54.327Z,940.78
2023-01-10T08:04:54.363Z,940.8
2023-01-10T08:05:54.559Z,940.82
2023-01-10T08:06:55.604Z,940.83
2023-01-10T08:07:56.111Z,940.85
2023-01-10T08:08:57.067Z,940.88
2023-01-10T08:09:57.285Z,940.89
2023-01-10T08:10:57.800Z,940.91
2023-01-10T08:11:58.068Z,940.97
2023-01-10T08:13:03.855Z,940.94
2023-01-10T08:13:58.850Z,940.94
2023-01-10T08:14:59.230Z,940.96
2023-01-10T08:16:00.281Z,940.98
2023-01-10T08:17:00.609Z,940.99
2023-01-10T08:18:01.362Z,941.04
2023-01-10T08:19:01.597Z,941.05
2023-01-10T08:20:01.892Z,941.04
2023-01-10T08:21:02.120Z,941.07
2023-01-10T08:22:03.187Z,941.07
2023-01-10T08:23:04.107Z,941.12
2023-01-10T08:24:04.370Z,941.13
2023-01-10T08:25:04.579Z,941.17
2023-01-10T08:26:05.567Z,941.21
2023-01-10T08:27:06.642Z,941.29
2023-01-10T08:28:07.588Z,941.27
2023-01-10T08:29:07.796Z,941.28
2023-01-10T08:30:08.034Z,941.27
2023-01-10T08:31:08.434Z,941.36
2023-01-10T08:32:09.179Z,941.39
2023-01-10T08:33:09.442Z,941.41
2023-01-10T08:34:10.103Z,941.42
2023-01-10T08:35:10.651Z,941.4
2023-01-10T08:36:10.918Z,941.42
2023-01-10T08:37:11.220Z,941.45
2023-01-10T08:38:11.909Z,941.42
2023-01-10T08:39:12.859Z,941.43
2023-01-10T08:40:13.814Z,941.47
2023-01-10T08:41:14.306Z,941.48
2023-01-10T08:42:15.264Z,941.48
2023-01-10T08:43:15.522Z,941.52
2023-01-10T08:44:16.442Z,941.51
2023-01-10T08:45:16.681Z,941.56
2023-01-10T08:46:17.069Z,941.59
2023-01-10T08:47:17.741Z,941.59
2023-01-10T08:48:18.120Z,941.62
2023-01-10T08:49:19.093Z,941.66
2023-01-10T08:50:19.624Z,941.68
2023-01-10T08:51:20.578Z,941.68
2023-01-10T08:52:21.082Z,941.71
2023-01-10T08:53:21.501Z,941.64
2023-01-10T08:54:22.024Z,941.65
2023-01-10T08:55:22.298Z,941.65
2023-01-10T08:56:22.562Z,941.68
2023-01-10T08:57:23.223Z,941.72
2023-01-10T08:58:23.427Z,941.75
2023-01-10T08:59:23.992Z,941.76
2023-01-10T09:00:24.200Z,941.84
2023-01-10T09:01:24.570Z,941.86
2023-01-10T09:02:24.767Z,941.83
2023-01-10T09:03:25.297Z,941.91
2023-01-10T09:04:25.977Z,941.93
2023-01-10T09:05:27.660Z,941.96
2023-01-10T09:06:26.627Z,941.97
2023-01-10T09:07:27.676Z,941.98
2023-01-10T09:08:28.171Z,942.01
2023-01-10T09:09:28.420Z,942.06
2023-01-10T09:10:28.921Z,942.02
2023-01-10T09:11:29.495Z,942.07
2023-01-10T09:12:29.737Z,942.08
2023-01-10T09:13:29.961Z,942.16
2023-01-10T09:14:30.171Z,942.16
2023-01-10T09:15:31.124Z,942.15
2023-01-10T09:16:31.479Z,942.12
2023-01-10T09:17:31.671Z,942.14
2023-01-10T09:18:31.897Z,942.14
2023-01-10T09:19:32.918Z,942.16
2023-01-10T09:20:33.438Z,942.15
2023-01-10T09:21:34.380Z,942.14
2023-01-10T09:22:35.338Z,942.11
2023-01-10T09:23:37.259Z,942.14
2023-01-10T09:24:36.585Z,942.1
2023-01-10T09:25:37.593Z,942.1
2023-01-10T09:26:38.559Z,942.16
2023-01-10T09:27:39.632Z,942.14
2023-01-10T09:28:39.896Z,942.18
2023-01-10T09:29:40.213Z,942.17
2023-01-10T09:30:40.424Z,942.19
2023-01-10T09:31:41.208Z,942.19
2023-01-10T09:32:41.903Z,942.25
2023-01-10T09:33:46.939Z,942.29
2023-01-10T09:34:43.735Z,942.33
2023-01-10T09:35:43.972Z,942.38
2023-01-10T09:36:44.548Z,942.4
2023-01-10T09:37:45.253Z,942.46
2023-01-10T09:38:45.784Z,942.52
2023-01-10T09:39:46.077Z,942.53
2023-01-10T09:40:46.795Z,942.54
2023-01-10T09:41:47.306Z,942.54
2023-01-10T09:42:48.290Z,942.62
2023-01-10T09:43:49.286Z,942.64
2023-01-10T09:44:49.597Z,942.63
2023-01-10T09:45:50.529Z,942.65
2023-01-10T09:46:51.073Z,942.61
2023-01-10T09:47:54.005Z,942.64
2023-01-10T09:48:54.393Z,942.63
2023-01-10T09:49:54.630Z,942.64
2023-01-10T09:50:55.033Z,942.66
2023-01-10T09:51:56.002Z,942.66
2023-01-10T09:52:55.541Z,942.66
2023-01-10T09:54:03.442Z,942.65
2023-01-10T09:54:56.003Z,942.69
2023-01-10T09:55:56.631Z,942.67
2023-01-10T09:56:57.299Z,942.65
2023-01-10T09:57:57.952Z,942.67
2023-01-10T09:58:58.526Z,942.7
2023-01-10T09:59:59.079Z,942.69
2023-01-10T10:00:59.505Z,942.69
2023-01-10T10:02:00.189Z,942.71
2023-01-10T10:03:00.734Z,942.69
2023-01-10T10:04:01.629Z,942.71
2023-01-10T10:05:02.451Z,942.66
2023-01-10T10:06:11.474Z,942.66
2023-01-10T10:07:03.414Z,942.66
2023-01-10T10:08:03.768Z,942.7
2023-01-10T10:09:05.031Z,942.64
2023-01-10T10:10:04.644Z,942.66
2023-01-10T10:11:04.911Z,942.67
2023-01-10T10:12:05.119Z,942.69
2023-01-10T10:13:05.918Z,942.67
2023-01-10T10:14:06.163Z,942.55
2023-01-10T10:15:06.672Z,942.53
2023-01-10T10:16:07.021Z,942.58
2023-01-10T10:17:07.483Z,942.64
2023-01-10T10:18:07.858Z,942.67
2023-01-10T10:19:08.803Z,942.64
2023-01-10T10:20:09.351Z,942.64
2023-01-10T10:21:09.576Z,942.61
2023-01-10T10:22:10.505Z,942.65
2023-01-10T10:23:10.860Z,942.66
2023-01-10T10:24:11.372Z,942.64
2023-01-10T10:25:11.588Z,942.64
2023-01-10T10:26:12.286Z,942.62
2023-01-10T10:27:12.941Z,942.66
2023-01-10T10:28:13.610Z,942.66
2023-01-10T10:29:13.869Z,942.67
2023-01-10T10:30:14.538Z,942.65
2023-01-10T10:31:15.104Z,942.64
2023-01-10T10:32:15.585Z,942.66
2023-01-10T10:33:15.815Z,942.66
2023-01-10T10:34:16.467Z,942.67
2023-01-10T10:35:16.695Z,942.69
2023-01-10T10:36:17.742Z,942.67
2023-01-10T10:37:18.657Z,942.67
2023-01-10T10:38:19.701Z,942.67
2023-01-10T10:39:19.909Z,942.68
2023-01-10T10:40:20.210Z,942.66
2023-01-10T10:41:20.749Z,942.6
2023-01-10T10:42:21.011Z,942.7
2023-01-10T10:43:21.724Z,942.65
2023-01-10T10:44:22.239Z,942.48
2023-01-10T10:45:25.240Z,942.44
2023-01-10T10:46:23.761Z,942.35
2023-01-10T10:47:23.998Z,942.36
2023-01-10T10:48:24.485Z,942.42
2023-01-10T10:49:25.489Z,942.44
2023-01-10T10:50:26.025Z,942.46
2023-01-10T10:51:26.556Z,942.5
2023-01-10T10:52:27.514Z,942.53
2023-01-10T10:53:28.157Z,942.52
2023-01-10T10:54:28.490Z,942.46
2023-01-10T10:55:29.285Z,942.47
2023-01-10T10:56:30.268Z,942.45
2023-01-10T10:57:30.490Z,942.47
2023-01-10T10:58:32.439Z,942.61
2023-01-10T10:59:32.641Z,942.57
2023-01-10T11:00:33.594Z,942.59
2023-01-10T11:01:34.829Z,942.59
2023-01-10T11:02:34.854Z,942.63
2023-01-10T11:03:35.821Z,942.65
2023-01-10T11:04:36.055Z,942.7
2023-01-10T11:05:36.284Z,942.75
2023-01-10T11:06:36.534Z,942.79
2023-01-10T11:07:37.067Z,942.76
2023-01-10T11:08:37.713Z,942.68
2023-01-10T11:09:38.206Z,942.62
2023-01-10T11:10:38.678Z,942.65
2023-01-10T11:11:39.681Z,942.69
2023-01-10T11:12:40.656Z,942.69
2023-01-10T11:13:40.880Z,942.77
2023-01-10T11:14:41.161Z,942.64
2023-01-10T11:15:41.431Z,942.65
2023-01-10T11:16:41.966Z,942.56
2023-01-10T11:17:42.666Z,942.6
2023-01-10T11:18:43.410Z,942.61
2023-01-10T11:19:43.984Z,942.57
2023-01-10T11:20:44.503Z,942.62
2023-01-10T11:21:45.015Z,942.58
2023-01-10T11:22:45.940Z,942.61
2023-01-10T11:23:46.147Z,942.65
2023-01-10T11:24:46.784Z,942.66
2023-01-10T11:25:47.779Z,942.69
2023-01-10T11:26:48.022Z,942.66
2023-01-10T11:27:48.232Z,942.65
2023-01-10T11:28:49.283Z,942.64
2023-01-10T11:29:49.524Z,942.71
2023-01-10T11:30:50.194Z,942.69
2023-01-10T11:31:50.784Z,942.7
2023-01-10T11:32:51.526Z,942.76
2023-01-10T11:33:51.844Z,942.73
2023-01-10T11:34:52.393Z,942.78
2023-01-10T11:35:52.632Z,942.71
2023-01-10T11:36:53.169Z,942.75
2023-01-10T11:37:54.136Z,942.83
2023-01-10T11:38:54.874Z,942.72
2023-01-10T11:39:55.373Z,942.7
2023-01-10T11:40:56.059Z,942.74
2023-01-10T11:41:56.601Z,942.71
2023-01-10T11:42:59.215Z,942.76
2023-01-10T11:43:58.344Z,942.74
2023-01-10T11:44:58.586Z,942.77
2023-01-10T11:45:59.180Z,942.8
2023-01-10T11:46:59.224Z,942.77
2023-01-10T11:47:59.940Z,942.77
2023-01-10T11:49:09.110Z,942.78
2023-01-10T11:50:10.103Z,942.78
2023-01-10T11:51:10.703Z,942.72
2023-01-10T11:52:11.695Z,942.67
2023-01-10T11:53:11.904Z,942.68
2023-01-10T11:54:12.568Z,942.69
2023-01-10T11:55:13.542Z,942.72
2023-01-10T11:56:14.574Z,942.74
2023-01-10T11:57:15.359Z,942.72
2023-01-10T11:58:15.673Z,942.75
2023-01-10T11:59:16.103Z,942.75
2023-01-10T12:00:16.360Z,942.76
2023-01-10T12:01:16.700Z,942.73
2023-01-10T12:02:17.082Z,942.73
2023-01-10T12:03:17.801Z,942.76
2023-01-10T12:04:18.036Z,942.79
2023-01-10T12:05:18.384Z,942.75
2023-01-10T12:06:18.474Z,942.76
2023-01-10T12:07:18.704Z,942.81
2023-01-10T12:08:19.210Z,942.79
2023-01-10T12:09:19.544Z,942.82
2023-01-10T12:10:21.093Z,942.83
2023-01-10T12:11:20.066Z,942.77
2023-01-10T12:12:21.026Z,942.77
2023-01-10T12:13:21.970Z,942.78
2023-01-10T12:14:22.295Z,942.75
2023-01-10T12:15:22.584Z,942.68
2023-01-10T12:16:22.843Z,942.65
2023-01-10T12:17:23.170Z,942.63
2023-01-10T12:18:23.912Z,942.69
2023-01-10T12:19:24.682Z,942.67
2023-01-10T12:20:25.656Z,942.65
2023-01-10T12:21:26.182Z,942.63
2023-01-10T12:22:26.458Z,942.62
2023-01-10T12:23:26.676Z,942.59
2023-01-10T12:24:27.175Z,942.6
2023-01-10T12:25:27.439Z,942.63
2023-01-10T12:26:28.083Z,942.6
2023-01-10T12:27:28.610Z,942.57
2023-01-10T12:28:29.531Z,942.6
2023-01-10T12:29:30.601Z,942.56
2023-01-10T12:30:30.999Z,942.57
2023-01-10T12:31:31.481Z,942.57
2023-01-10T12:32:32.467Z,942.59
2023-01-10T12:33:32.979Z,942.6
2023-01-10T12:34:33.264Z,942.67
2023-01-10T12:35:33.552Z,942.63
2023-01-10T12:36:34.116Z,942.7
2023-01-10T12:37:35.071Z,942.68